sensor_id;sensor_type;location;lat;lon;timestamp;pressure;altitude;pressure_sealevel;temperature;humidity
58973;BME280;44750;52.040;7.472;2022-08-24T00:02:39;100446.19;;;25.60;100.00
58973;BME280;44750;52.040;7.472;2022-08-24T00:07:39;100421.66;;;25.46;100.00
58973;BME280;44750;52.040;7.472;2022-08-24T00:12:40;100446.91;;;25.50;100.00
58973;BME280;44750;52.040;7.472;2022-08-24T00:17:40;100422.72;;;25.23;100.00
58973;BME280;44750;52.040;7.472;2022-08-24T00:22:41;100460.78;;;25.33;100.00
58973;BME280;44750;52.040;7.472;2022-08-24T00:27:41;100482.09;;;25.32;100.00
58973;BME280;44750;52.040;7.472;2022-08-24T00:32:42;100484.31;;;25.30;100.00
58973;BME280;44750;52.040;7.472;2022-08-24T00:37:44;100500.41;;;25.33;100.00
58973;BME280;44750;52.040;7.472;2022-08-24T00:42:45;100430.69;;;24.97;100.00
58973;BME280;44750;52.040;7.472;2022-08-24T00:53:16;100501.53;;;24.93;100.00
58973;BME280;44750;52.040;7.472;2022-08-24T00:58:22;100418.44;;;24.37;100.00
58973;BME280;44750;52.040;7.472;2022-08-24T01:03:25;100459.50;;;24.11;100.00
58973;BME280;44750;52.040;7.472;2022-08-24T01:08:26;100500.47;;;24.14;100.00
58973;BME280;44750;52.040;7.472;2022-08-24T01:13:27;100529.06;;;24.20;100.00
58973;BME280;44750;52.040;7.472;2022-08-24T01:18:29;100525.47;;;24.19;100.00
58973;BME280;44750;52.040;7.472;2022-08-24T01:23:39;100543.25;;;24.24;100.00
58973;BME280;44750;52.040;7.472;2022-08-24T01:28:42;100541.56;;;24.23;100.00
58973;BME280;44750;52.040;7.472;2022-08-24T01:33:43;100491.41;;;24.02;100.00
58973;BME280;44750;52.040;7.472;2022-08-24T01:38:44;100524.88;;;24.17;100.00
58973;BME280;44750;52.040;7.472;2022-08-24T01:43:46;100496.13;;;24.18;100.00
58973;BME280;44750;52.040;7.472;2022-08-24T01:48:47;100489.78;;;24.18;100.00
58973;BME280;44750;52.040;7.472;2022-08-24T01:53:47;100442.56;;;24.08;100.00
58973;BME280;44750;52.040;7.472;2022-08-24T01:58:47;100415.66;;;24.03;100.00
58973;BME280;44750;52.040;7.472;2022-08-24T02:03:47;100429.09;;;24.11;100.00
58973;BME280;44750;52.040;7.472;2022-08-24T02:08:48;100369.78;;;24.02;100.00
58973;BME280;44750;52.040;7.472;2022-08-24T02:13:48;100341.97;;;23.92;100.00
58973;BME280;44750;52.040;7.472;2022-08-24T02:18:48;100299.28;;;23.70;100.00
58973;BME280;44750;52.040;7.472;2022-08-24T02:23:49;100287.75;;;23.57;100.00
58973;BME280;44750;52.040;7.472;2022-08-24T02:28:50;100327.16;;;23.52;100.00
58973;BME280;44750;52.040;7.472;2022-08-24T02:33:50;100315.59;;;23.38;100.00
58973;BME280;44750;52.040;7.472;2022-08-24T02:38:50;100360.84;;;23.37;100.00
58973;BME280;44750;52.040;7.472;2022-08-24T02:43:52;100365.09;;;23.28;100.00
58973;BME280;44750;52.040;7.472;2022-08-24T02:48:53;100380.97;;;23.20;100.00
58973;BME280;44750;52.040;7.472;2022-08-24T02:53:54;100382.56;;;23.04;100.00
58973;BME280;44750;52.040;7.472;2022-08-24T02:58:58;100408.88;;;22.83;100.00
58973;BME280;44750;52.040;7.472;2022-08-24T03:03:59;100491.66;;;22.95;100.00
58973;BME280;44750;52.040;7.472;2022-08-24T03:08:59;100445.56;;;22.72;100.00
58973;BME280;44750;52.040;7.472;2022-08-24T03:14:00;100497.75;;;22.62;100.00
58973;BME280;44750;52.040;7.472;2022-08-24T03:19:00;100507.44;;;22.52;100.00
58973;BME280;44750;52.040;7.472;2022-08-24T03:24:00;100555.78;;;22.55;100.00
58973;BME280;44750;52.040;7.472;2022-08-24T03:29:01;100574.66;;;22.58;100.00
58973;BME280;44750;52.040;7.472;2022-08-24T03:34:01;100589.03;;;22.60;100.00
58973;BME280;44750;52.040;7.472;2022-08-24T03:39:01;100582.91;;;22.58;100.00
58973;BME280;44750;52.040;7.472;2022-08-24T03:44:02;100571.09;;;22.39;100.00
58973;BME280;44750;52.040;7.472;2022-08-24T03:49:05;100561.03;;;22.14;100.00
58973;BME280;44750;52.040;7.472;2022-08-24T03:54:07;100617.88;;;22.15;100.00
58973;BME280;44750;52.040;7.472;2022-08-24T03:59:08;100634.41;;;22.15;100.00
58973;BME280;44750;52.040;7.472;2022-08-24T04:04:09;100666.53;;;22.21;100.00
58973;BME280;44750;52.040;7.472;2022-08-24T04:09:10;100677.47;;;22.28;100.00
58973;BME280;44750;52.040;7.472;2022-08-24T04:14:11;100674.13;;;22.26;100.00
58973;BME280;44750;52.040;7.472;2022-08-24T04:19:12;100697.13;;;22.38;100.00
58973;BME280;44750;52.040;7.472;2022-08-24T04:24:13;100667.16;;;22.24;100.00
58973;BME280;44750;52.040;7.472;2022-08-24T04:29:15;100690.13;;;22.17;100.00
58973;BME280;44750;52.040;7.472;2022-08-24T04:34:16;100710.41;;;22.23;100.00
58973;BME280;44750;52.040;7.472;2022-08-24T04:39:17;100703.91;;;22.17;100.00
58973;BME280;44750;52.040;7.472;2022-08-24T04:44:17;100722.16;;;22.18;98.17
58973;BME280;44750;52.040;7.472;2022-08-24T04:49:18;100566.13;;;21.43;98.76
58973;BME280;44750;52.040;7.472;2022-08-24T04:54:18;100615.06;;;20.72;86.10
58973;BME280;44750;52.040;7.472;2022-08-24T04:59:18;100686.16;;;20.62;64.03
58973;BME280;44750;52.040;7.472;2022-08-24T05:04:19;100712.19;;;20.59;49.24
58973;BME280;44750;52.040;7.472;2022-08-24T05:09:19;100759.09;;;20.78;42.40
58973;BME280;44750;52.040;7.472;2022-08-24T05:14:19;100757.13;;;20.92;42.61
58973;BME280;44750;52.040;7.472;2022-08-24T05:19:20;100762.63;;;20.92;44.22
58973;BME280;44750;52.040;7.472;2022-08-24T05:24:20;100759.94;;;20.85;44.63
58973;BME280;44750;52.040;7.472;2022-08-24T05:29:20;100790.16;;;20.92;44.98
58973;BME280;44750;52.040;7.472;2022-08-24T05:34:22;100782.31;;;20.88;46.53
58973;BME280;44750;52.040;7.472;2022-08-24T05:39:23;100783.44;;;20.81;45.83
58973;BME280;44750;52.040;7.472;2022-08-24T05:44:23;100796.34;;;20.80;44.99
58973;BME280;44750;52.040;7.472;2022-08-24T05:49:24;100804.16;;;20.83;46.40
58973;BME280;44750;52.040;7.472;2022-08-24T05:54:25;100831.81;;;21.02;47.46
58973;BME280;44750;52.040;7.472;2022-08-24T05:59:25;100852.69;;;21.10;48.69
58973;BME280;44750;52.040;7.472;2022-08-24T06:04:25;100873.13;;;21.34;48.81
58973;BME280;44750;52.040;7.472;2022-08-24T06:09:25;100913.19;;;21.68;50.41
58973;BME280;44750;52.040;7.472;2022-08-24T06:14:25;100884.81;;;21.93;55.37
58973;BME280;44750;52.040;7.472;2022-08-24T06:19:26;100908.28;;;22.28;58.99
58973;BME280;44750;52.040;7.472;2022-08-24T06:24:29;100905.91;;;22.57;62.24
58973;BME280;44750;52.040;7.472;2022-08-24T06:29:32;100882.69;;;22.83;68.51
58973;BME280;44750;52.040;7.472;2022-08-24T06:34:33;100863.97;;;23.03;72.22
58973;BME280;44750;52.040;7.472;2022-08-24T06:39:33;100843.56;;;23.04;74.68
58973;BME280;44750;52.040;7.472;2022-08-24T06:44:33;100822.84;;;23.14;75.82
58973;BME280;44750;52.040;7.472;2022-08-24T06:49:34;100854.75;;;23.40;75.26
58973;BME280;44750;52.040;7.472;2022-08-24T06:54:34;100852.69;;;23.66;77.15
58973;BME280;44750;52.040;7.472;2022-08-24T06:59:35;100785.75;;;23.76;81.95
58973;BME280;44750;52.040;7.472;2022-08-24T07:04:35;100866.22;;;24.45;85.78
58973;BME280;44750;52.040;7.472;2022-08-24T07:09:36;100836.81;;;25.20;94.79
58973;BME280;44750;52.040;7.472;2022-08-24T07:14:36;100758.28;;;25.61;100.00
58973;BME280;44750;52.040;7.472;2022-08-24T07:19:36;100683.06;;;25.91;100.00
58973;BME280;44750;52.040;7.472;2022-08-24T07:24:37;100664.63;;;26.24;100.00
58973;BME280;44750;52.040;7.472;2022-08-24T07:29:37;100585.09;;;26.35;100.00
58973;BME280;44750;52.040;7.472;2022-08-24T07:34:37;100574.53;;;26.59;100.00
58973;BME280;44750;52.040;7.472;2022-08-24T07:39:37;100551.50;;;26.64;100.00
58973;BME280;44750;52.040;7.472;2022-08-24T07:44:44;100570.56;;;27.20;100.00
58973;BME280;44750;52.040;7.472;2022-08-24T07:49:44;100489.09;;;27.09;100.00
58973;BME280;44750;52.040;7.472;2022-08-24T07:54:45;100482.53;;;27.31;100.00
58973;BME280;44750;52.040;7.472;2022-08-24T07:59:51;100383.75;;;26.97;100.00
58973;BME280;44750;52.040;7.472;2022-08-24T08:04:53;100448.34;;;27.25;100.00
58973;BME280;44750;52.040;7.472;2022-08-24T08:09:54;100444.09;;;27.12;100.00
58973;BME280;44750;52.040;7.472;2022-08-24T08:14:54;100443.59;;;27.20;100.00
58973;BME280;44750;52.040;7.472;2022-08-24T08:19:54;100482.97;;;27.65;100.00
58973;BME280;44750;52.040;7.472;2022-08-24T08:24:55;100466.13;;;28.03;100.00
58973;BME280;44750;52.040;7.472;2022-08-24T08:30:02;100424.41;;;28.34;100.00
58973;BME280;44750;52.040;7.472;2022-08-24T08:35:04;100461.69;;;28.79;100.00
58973;BME280;44750;52.040;7.472;2022-08-24T09:15:33;100670.97;;;31.15;100.00
58973;BME280;44750;52.040;7.472;2022-08-24T09:21:19;100624.09;;;31.07;100.00
58973;BME280;44750;52.040;7.472;2022-08-24T09:26:27;100534.25;;;30.55;100.00
58973;BME280;44750;52.040;7.472;2022-08-24T09:31:48;100601.63;;;30.48;100.00
58973;BME280;44750;52.040;7.472;2022-08-24T09:37:03;100626.72;;;30.88;100.00
58973;BME280;44750;52.040;7.472;2022-08-24T09:59:02;100646.53;;;31.56;100.00
58973;BME280;44750;52.040;7.472;2022-08-24T10:09:43;100641.63;;;31.72;100.00
58973;BME280;44750;52.040;7.472;2022-08-24T10:19:56;100545.94;;;31.70;99.17
58973;BME280;44750;52.040;7.472;2022-08-24T10:25:26;100555.88;;;31.81;97.54
58973;BME280;44750;52.040;7.472;2022-08-24T11:02:31;100556.75;;;32.91;86.74
58973;BME280;44750;52.040;7.472;2022-08-24T11:07:31;100394.97;;;31.97;86.84
58973;BME280;44750;52.040;7.472;2022-08-24T11:12:36;100448.19;;;31.78;88.22
58973;BME280;44750;52.040;7.472;2022-08-24T11:17:52;100489.81;;;32.23;86.71
58973;BME280;44750;52.040;7.472;2022-08-24T11:23:03;100513.78;;;32.62;84.61
58973;BME280;44750;52.040;7.472;2022-08-24T11:28:31;100409.06;;;32.44;83.13
58973;BME280;44750;52.040;7.472;2022-08-24T11:33:43;100354.78;;;31.74;84.99
58973;BME280;44750;52.040;7.472;2022-08-24T11:38:44;100516.94;;;32.42;84.87
58973;BME280;44750;52.040;7.472;2022-08-24T11:44:11;100428.38;;;32.27;84.42
58973;BME280;44750;52.040;7.472;2022-08-24T11:54:34;100414.84;;;32.81;78.78
58973;BME280;44750;52.040;7.472;2022-08-24T12:05:11;100334.78;;;32.75;75.23
58973;BME280;44750;52.040;7.472;2022-08-24T12:10:23;100341.84;;;32.86;75.13
58973;BME280;44750;52.040;7.472;2022-08-24T12:20:53;100379.00;;;33.20;74.80
58973;BME280;44750;52.040;7.472;2022-08-24T12:26:02;100363.28;;;33.18;74.61
58973;BME280;44750;52.040;7.472;2022-08-24T12:31:10;100345.88;;;33.08;74.30
58973;BME280;44750;52.040;7.472;2022-08-24T12:36:17;100335.47;;;33.22;74.01
58973;BME280;44750;52.040;7.472;2022-08-24T12:41:26;100326.66;;;33.29;72.54
58973;BME280;44750;52.040;7.472;2022-08-24T12:46:28;100343.16;;;33.16;73.17
58973;BME280;44750;52.040;7.472;2022-08-24T12:51:38;100226.97;;;32.72;73.46
58973;BME280;44750;52.040;7.472;2022-08-24T13:02:06;100316.06;;;33.12;73.12
58973;BME280;44750;52.040;7.472;2022-08-24T13:07:26;100242.84;;;32.77;74.28
58973;BME280;44750;52.040;7.472;2022-08-24T13:17:40;100189.31;;;32.23;75.83
58973;BME280;44750;52.040;7.472;2022-08-24T13:22:47;100218.44;;;32.08;77.49
58973;BME280;44750;52.040;7.472;2022-08-24T13:28:06;100357.81;;;32.58;76.37
58973;BME280;44750;52.040;7.472;2022-08-24T13:33:09;100340.09;;;32.90;72.94
58973;BME280;44750;52.040;7.472;2022-08-24T13:38:27;100233.94;;;32.97;70.61
58973;BME280;44750;52.040;7.472;2022-08-24T13:43:52;100305.88;;;33.30;70.95
58973;BME280;44750;52.040;7.472;2022-08-24T14:21:50;100190.25;;;33.96;65.03
58973;BME280;44750;52.040;7.472;2022-08-24T14:27:02;100171.78;;;33.72;64.79
58973;BME280;44750;52.040;7.472;2022-08-24T14:42:50;100149.28;;;33.95;63.67
58973;BME280;44750;52.040;7.472;2022-08-24T14:53:06;100101.00;;;33.75;62.57
58973;BME280;44750;52.040;7.472;2022-08-24T14:58:16;100143.47;;;33.82;63.05
58973;BME280;44750;52.040;7.472;2022-08-24T15:08:47;100073.03;;;33.53;62.46
58973;BME280;44750;52.040;7.472;2022-08-24T15:13:53;99984.09;;;33.22;61.89
58973;BME280;44750;52.040;7.472;2022-08-24T15:19:12;99990.59;;;33.08;62.09
58973;BME280;44750;52.040;7.472;2022-08-24T15:29:35;100092.19;;;33.28;63.00
58973;BME280;44750;52.040;7.472;2022-08-24T15:39:47;99953.31;;;32.99;62.70
58973;BME280;44750;52.040;7.472;2022-08-24T15:44:48;99948.78;;;32.58;64.23
58973;BME280;44750;52.040;7.472;2022-08-24T15:54:57;99972.84;;;32.59;63.94
58973;BME280;44750;52.040;7.472;2022-08-24T16:00:15;100044.06;;;32.80;63.55
58973;BME280;44750;52.040;7.472;2022-08-24T16:20:48;99913.72;;;32.69;61.34
58973;BME280;44750;52.040;7.472;2022-08-24T16:25:48;99944.94;;;32.76;61.27
58973;BME280;44750;52.040;7.472;2022-08-24T16:30:54;99968.09;;;32.91;60.63
58973;BME280;44750;52.040;7.472;2022-08-24T16:35:55;99889.16;;;32.66;60.71
58973;BME280;44750;52.040;7.472;2022-08-24T16:40:57;99922.38;;;32.73;61.22
58973;BME280;44750;52.040;7.472;2022-08-24T16:45:59;99902.66;;;32.64;61.43
58973;BME280;44750;52.040;7.472;2022-08-24T16:51:00;99914.19;;;32.62;61.47
58973;BME280;44750;52.040;7.472;2022-08-24T16:56:01;99957.56;;;32.65;62.26
58973;BME280;44750;52.040;7.472;2022-08-24T17:01:01;99947.13;;;32.57;62.37
58973;BME280;44750;52.040;7.472;2022-08-24T17:06:02;99943.94;;;32.49;62.64
58973;BME280;44750;52.040;7.472;2022-08-24T17:11:02;99943.44;;;32.47;62.54
58973;BME280;44750;52.040;7.472;2022-08-24T17:16:03;99954.53;;;32.53;62.56
58973;BME280;44750;52.040;7.472;2022-08-24T17:21:03;99931.56;;;32.42;62.89
58973;BME280;44750;52.040;7.472;2022-08-24T17:26:08;99880.19;;;32.24;62.57
58973;BME280;44750;52.040;7.472;2022-08-24T17:31:09;99926.97;;;32.23;63.21
58973;BME280;44750;52.040;7.472;2022-08-24T17:36:09;99923.16;;;32.05;64.64
58973;BME280;44750;52.040;7.472;2022-08-24T17:41:11;99944.66;;;31.96;64.85
58973;BME280;44750;52.040;7.472;2022-08-24T17:46:12;99965.59;;;31.98;65.25
58973;BME280;44750;52.040;7.472;2022-08-24T17:51:13;99959.41;;;31.88;65.06
58973;BME280;44750;52.040;7.472;2022-08-24T17:56:14;99950.09;;;31.78;65.97
58973;BME280;44750;52.040;7.472;2022-08-24T18:01:15;99981.09;;;31.68;66.47
58973;BME280;44750;52.040;7.472;2022-08-24T18:06:17;99994.44;;;31.57;66.85
58973;BME280;44750;52.040;7.472;2022-08-24T18:11:18;99987.72;;;31.44;67.18
58973;BME280;44750;52.040;7.472;2022-08-24T18:16:20;100007.69;;;31.38;67.53
58973;BME280;44750;52.040;7.472;2022-08-24T18:21:21;99995.16;;;31.21;68.26
58973;BME280;44750;52.040;7.472;2022-08-24T18:26:24;100003.09;;;31.00;70.36
58973;BME280;44750;52.040;7.472;2022-08-24T18:31:26;100046.09;;;30.85;72.15
58973;BME280;44750;52.040;7.472;2022-08-24T18:36:27;100069.97;;;30.77;73.25
58973;BME280;44750;52.040;7.472;2022-08-24T18:41:31;100091.91;;;30.70;74.33
58973;BME280;44750;52.040;7.472;2022-08-24T18:46:33;100087.38;;;30.55;76.29
58973;BME280;44750;52.040;7.472;2022-08-24T18:51:34;100104.63;;;30.38;78.82
58973;BME280;44750;52.040;7.472;2022-08-24T18:56:35;100125.66;;;30.30;80.69
58973;BME280;44750;52.040;7.472;2022-08-24T19:01:36;100127.84;;;30.14;82.86
58973;BME280;44750;52.040;7.472;2022-08-24T19:06:36;100122.03;;;29.87;85.80
58973;BME280;44750;52.040;7.472;2022-08-24T19:11:36;100156.84;;;29.65;89.27
58973;BME280;44750;52.040;7.472;2022-08-24T19:16:37;100163.09;;;29.51;91.47
58973;BME280;44750;52.040;7.472;2022-08-24T19:21:37;100179.63;;;29.43;93.62
58973;BME280;44750;52.040;7.472;2022-08-24T19:26:37;100209.50;;;29.37;95.48
58973;BME280;44750;52.040;7.472;2022-08-24T19:31:37;100213.53;;;29.26;97.14
58973;BME280;44750;52.040;7.472;2022-08-24T19:36:39;100207.44;;;29.13;99.20
58973;BME280;44750;52.040;7.472;2022-08-24T19:41:42;100219.53;;;28.98;100.00
58973;BME280;44750;52.040;7.472;2022-08-24T19:46:44;100220.44;;;28.89;100.00
58973;BME280;44750;52.040;7.472;2022-08-24T19:51:44;100243.28;;;28.85;100.00
58973;BME280;44750;52.040;7.472;2022-08-24T19:56:45;100246.66;;;28.77;100.00
58973;BME280;44750;52.040;7.472;2022-08-24T20:01:46;100228.91;;;28.58;100.00
58973;BME280;44750;52.040;7.472;2022-08-24T20:06:46;100267.38;;;28.45;100.00
58973;BME280;44750;52.040;7.472;2022-08-24T20:11:49;100265.75;;;28.34;100.00
58973;BME280;44750;52.040;7.472;2022-08-24T20:16:49;100282.47;;;28.24;100.00
58973;BME280;44750;52.040;7.472;2022-08-24T20:21:49;100299.75;;;28.21;100.00
58973;BME280;44750;52.040;7.472;2022-08-24T20:26:50;100285.28;;;28.03;100.00
58973;BME280;44750;52.040;7.472;2022-08-24T20:31:50;100268.59;;;27.77;100.00
58973;BME280;44750;52.040;7.472;2022-08-24T20:36:50;100278.63;;;27.68;100.00
58973;BME280;44750;52.040;7.472;2022-08-24T20:41:50;100273.06;;;27.42;100.00
58973;BME280;44750;52.040;7.472;2022-08-24T20:46:51;100271.06;;;27.27;100.00
58973;BME280;44750;52.040;7.472;2022-08-24T20:51:52;100285.22;;;27.15;100.00
58973;BME280;44750;52.040;7.472;2022-08-24T20:56:52;100283.22;;;26.90;100.00
58973;BME280;44750;52.040;7.472;2022-08-24T21:01:53;100293.72;;;26.78;100.00
58973;BME280;44750;52.040;7.472;2022-08-24T21:06:54;100318.91;;;26.66;100.00
58973;BME280;44750;52.040;7.472;2022-08-24T21:11:54;100322.69;;;26.49;100.00
58973;BME280;44750;52.040;7.472;2022-08-24T21:16:56;100337.63;;;26.38;100.00
58973;BME280;44750;52.040;7.472;2022-08-24T21:21:57;100362.03;;;26.36;100.00
58973;BME280;44750;52.040;7.472;2022-08-24T21:26:57;100342.78;;;26.24;100.00
58973;BME280;44750;52.040;7.472;2022-08-24T21:31:57;100351.31;;;26.12;100.00
58973;BME280;44750;52.040;7.472;2022-08-24T21:36:57;100363.47;;;26.06;100.00
58973;BME280;44750;52.040;7.472;2022-08-24T21:41:58;100357.53;;;25.97;100.00
58973;BME280;44750;52.040;7.472;2022-08-24T21:46:58;100349.13;;;25.87;100.00
58973;BME280;44750;52.040;7.472;2022-08-24T21:51:59;100351.63;;;25.83;100.00
58973;BME280;44750;52.040;7.472;2022-08-24T21:56:59;100362.13;;;25.81;100.00
58973;BME280;44750;52.040;7.472;2022-08-24T22:02:00;100342.63;;;25.71;100.00
58973;BME280;44750;52.040;7.472;2022-08-24T22:07:00;100358.69;;;25.69;100.00
58973;BME280;44750;52.040;7.472;2022-08-24T22:12:00;100351.69;;;25.61;100.00
58973;BME280;44750;52.040;7.472;2022-08-24T22:17:01;100351.91;;;25.54;100.00
58973;BME280;44750;52.040;7.472;2022-08-24T22:22:01;100361.25;;;25.48;100.00
58973;BME280;44750;52.040;7.472;2022-08-24T22:27:01;100370.94;;;25.46;100.00
58973;BME280;44750;52.040;7.472;2022-08-24T22:32:05;100342.75;;;25.32;100.00
58973;BME280;44750;52.040;7.472;2022-08-24T22:37:05;100351.34;;;25.30;100.00
58973;BME280;44750;52.040;7.472;2022-08-24T22:42:06;100334.03;;;25.18;100.00
58973;BME280;44750;52.040;7.472;2022-08-24T22:47:06;100343.13;;;25.13;100.00
58973;BME280;44750;52.040;7.472;2022-08-24T22:52:06;100326.34;;;24.98;100.00
58973;BME280;44750;52.040;7.472;2022-08-24T22:57:07;100323.44;;;24.87;100.00
58973;BME280;44750;52.040;7.472;2022-08-24T23:02:11;100336.38;;;24.82;100.00
58973;BME280;44750;52.040;7.472;2022-08-24T23:07:13;100340.50;;;24.79;100.00
58973;BME280;44750;52.040;7.472;2022-08-24T23:12:17;100335.72;;;24.75;100.00
58973;BME280;44750;52.040;7.472;2022-08-24T23:17:18;100328.13;;;24.65;100.00
58973;BME280;44750;52.040;7.472;2022-08-24T23:22:19;100324.09;;;24.56;100.00
58973;BME280;44750;52.040;7.472;2022-08-24T23:27:20;100321.53;;;24.49;100.00
58973;BME280;44750;52.040;7.472;2022-08-24T23:32:21;100317.78;;;24.38;100.00
58973;BME280;44750;52.040;7.472;2022-08-24T23:37:22;100334.03;;;24.34;100.00
58973;BME280;44750;52.040;7.472;2022-08-24T23:42:22;100320.50;;;24.16;100.00
58973;BME280;44750;52.040;7.472;2022-08-24T23:47:22;100337.78;;;24.06;100.00
58973;BME280;44750;52.040;7.472;2022-08-24T23:52:22;100355.34;;;24.00;100.00
58973;BME280;44750;52.040;7.472;2022-08-24T23:57:23;100365.75;;;23.93;100.00
